createdAt,value
2018-10-09T00:01:03.263Z,10.50
2018-10-09T00:03:31.104Z,10.50
2018-10-09T00:05:58.999Z,10.60
2018-10-09T00:08:26.840Z,10.70
2018-10-09T00:10:54.718Z,10.70
2018-10-09T00:13:22.602Z,10.70
2018-10-09T00:15:50.770Z,10.60
2018-10-09T00:18:18.599Z,10.50
2018-10-09T00:20:46.470Z,10.50
2018-10-09T00:23:14.340Z,10.50
2018-10-09T00:25:42.210Z,10.40
2018-10-09T00:28:10.084Z,10.40
2018-10-09T00:30:37.915Z,10.40
2018-10-09T00:33:05.842Z,10.30
2018-10-09T00:35:33.740Z,10.30
2018-10-09T00:38:01.647Z,10.30
2018-10-09T00:40:29.521Z,10.30
2018-10-09T00:42:57.379Z,10.30
2018-10-09T00:45:25.312Z,10.40
2018-10-09T00:47:53.208Z,10.40
2018-10-09T00:50:21.057Z,10.40
2018-10-09T00:52:48.953Z,10.50
2018-10-09T00:55:16.865Z,10.50
2018-10-09T00:57:44.813Z,10.50
2018-10-09T01:00:12.673Z,10.50
2018-10-09T01:02:40.570Z,10.50
2018-10-09T01:05:08.581Z,10.50
2018-10-09T01:07:36.537Z,10.40
2018-10-09T01:10:04.457Z,10.40
2018-10-09T01:12:32.936Z,10.40
2018-10-09T01:15:00.823Z,10.30
2018-10-09T01:17:29.273Z,10.30
2018-10-09T01:19:57.137Z,10.20
2018-10-09T01:22:25.062Z,10.20
2018-10-09T01:24:52.935Z,10.20
2018-10-09T01:27:20.826Z,10.10
2018-10-09T01:29:48.683Z,10.10
2018-10-09T01:32:16.822Z,10.10
2018-10-09T01:34:44.784Z,10.10
2018-10-09T01:37:12.655Z,10.20
2018-10-09T01:39:41.211Z,10.20
2018-10-09T01:42:09.360Z,10.20
2018-10-09T01:44:37.249Z,10.10
2018-10-09T01:47:05.226Z,10.00
2018-10-09T01:49:33.160Z,10.00
2018-10-09T01:52:00.988Z,9.80
2018-10-09T01:54:28.908Z,9.90
2018-10-09T01:56:57.436Z,9.90
2018-10-09T01:59:25.324Z,9.80
2018-10-09T02:01:53.189Z,9.80
2018-10-09T02:04:21.050Z,9.70
2018-10-09T02:06:49.156Z,9.70
2018-10-09T02:09:16.987Z,9.60
2018-10-09T02:11:44.832Z,9.70
2018-10-09T02:14:12.668Z,9.80
2018-10-09T02:16:40.540Z,9.70
2018-10-09T02:19:08.392Z,9.70
2018-10-09T02:21:36.234Z,9.50
2018-10-09T02:24:04.240Z,9.50
2018-10-09T02:26:32.616Z,9.60
2018-10-09T02:29:00.442Z,9.60
2018-10-09T02:31:28.292Z,9.70
2018-10-09T02:33:56.146Z,9.80
2018-10-09T02:36:24.295Z,9.60
2018-10-09T02:38:52.144Z,9.60
2018-10-09T02:41:19.988Z,9.80
2018-10-09T02:43:47.838Z,9.80
2018-10-09T02:46:15.665Z,9.80
2018-10-09T02:48:43.521Z,9.90
2018-10-09T02:51:11.381Z,9.90
2018-10-09T02:53:40.169Z,9.90
2018-10-09T02:56:08.008Z,9.90
2018-10-09T02:58:35.836Z,9.90
2018-10-09T03:01:03.664Z,9.90
2018-10-09T03:03:31.496Z,9.80
2018-10-09T03:05:59.723Z,9.80
2018-10-09T03:08:27.632Z,9.90
2018-10-09T03:10:55.507Z,9.90
2018-10-09T03:13:23.323Z,9.80
2018-10-09T03:15:51.188Z,9.80
2018-10-09T03:18:19.007Z,9.80
2018-10-09T03:20:46.913Z,9.70
2018-10-09T03:23:14.777Z,9.50
2018-10-09T03:25:42.623Z,9.30
2018-10-09T03:28:10.453Z,9.40
2018-10-09T03:30:38.278Z,9.50
2018-10-09T03:33:06.290Z,9.40
2018-10-09T03:35:34.258Z,9.40
2018-10-09T03:38:02.110Z,9.40
2018-10-09T03:40:29.936Z,9.30
2018-10-09T03:42:57.790Z,9.40
2018-10-09T03:45:25.657Z,9.50
2018-10-09T03:47:53.485Z,9.60
2018-10-09T03:50:21.303Z,9.60
2018-10-09T03:52:49.168Z,9.60
2018-10-09T03:55:16.991Z,9.40
2018-10-09T03:57:44.852Z,9.40
2018-10-09T04:00:12.693Z,9.50
2018-10-09T04:02:40.576Z,9.50
2018-10-09T04:05:08.440Z,9.60
2018-10-09T04:07:36.289Z,9.50
2018-10-09T04:10:04.719Z,9.40
2018-10-09T04:12:32.582Z,9.40
2018-10-09T04:15:00.707Z,9.50
2018-10-09T04:17:28.634Z,9.40
2018-10-09T04:19:57.172Z,9.40
2018-10-09T04:22:25.077Z,9.40
2018-10-09T04:24:53.307Z,9.50
2018-10-09T04:27:21.149Z,9.40
2018-10-09T04:29:49.031Z,9.30
2018-10-09T04:32:16.911Z,9.30
2018-10-09T04:34:44.737Z,9.30
2018-10-09T04:37:12.574Z,9.20
2018-10-09T04:39:40.386Z,9.30
2018-10-09T04:42:08.292Z,9.20
2018-10-09T04:44:36.334Z,9.10
2018-10-09T04:47:04.504Z,9.10
2018-10-09T04:49:32.343Z,9.20
2018-10-09T04:52:00.473Z,9.10
2018-10-09T04:54:28.725Z,9.00
2018-10-09T04:56:56.917Z,9.10
2018-10-09T04:59:24.764Z,9.00
2018-10-09T05:01:53.476Z,8.90
2018-10-09T05:04:21.309Z,9.00
2018-10-09T05:06:49.451Z,9.00
2018-10-09T05:09:18.438Z,8.90
2018-10-09T05:11:46.299Z,8.90
2018-10-09T05:14:14.137Z,8.90
2018-10-09T05:16:42.042Z,9.00
2018-10-09T05:19:09.901Z,9.00
2018-10-09T05:21:37.759Z,9.10
2018-10-09T05:24:05.734Z,9.10
2018-10-09T05:26:33.597Z,9.10
2018-10-09T05:29:01.496Z,9.00
2018-10-09T05:31:29.353Z,9.10
2018-10-09T05:33:57.244Z,9.10
2018-10-09T05:36:26.043Z,9.00
2018-10-09T05:38:53.946Z,9.00
2018-10-09T05:41:21.800Z,8.90
2018-10-09T05:43:49.953Z,8.90
2018-10-09T05:46:17.787Z,8.90
2018-10-09T05:48:45.611Z,9.00
2018-10-09T05:51:13.496Z,8.90
2018-10-09T05:53:41.730Z,8.90
2018-10-09T05:56:09.993Z,9.00
2018-10-09T05:58:37.821Z,9.10
2018-10-09T06:01:05.741Z,9.00
2018-10-09T06:03:33.603Z,9.00
2018-10-09T06:06:01.579Z,9.00
2018-10-09T06:08:29.379Z,9.00
2018-10-09T06:10:57.264Z,9.00
2018-10-09T06:13:25.158Z,8.90
2018-10-09T06:15:53.001Z,9.00
2018-10-09T06:18:21.033Z,9.00
2018-10-09T06:20:49.172Z,9.00
2018-10-09T06:23:17.338Z,9.00
2018-10-09T06:25:45.520Z,8.90
2018-10-09T06:28:13.372Z,8.80
2018-10-09T06:30:41.568Z,8.90
2018-10-09T06:33:09.388Z,9.00
2018-10-09T06:35:37.613Z,9.10
2018-10-09T06:38:06.157Z,9.00
2018-10-09T06:40:34.075Z,8.90
2018-10-09T06:43:02.472Z,8.90
2018-10-09T06:45:30.349Z,8.90
2018-10-09T06:47:58.298Z,8.90
2018-10-09T06:50:26.189Z,8.90
2018-10-09T06:52:54.299Z,8.90
2018-10-09T06:55:22.159Z,9.00
2018-10-09T06:57:50.344Z,9.00
2018-10-09T07:00:18.553Z,9.10
2018-10-09T07:02:46.491Z,9.30
2018-10-09T07:05:14.377Z,9.40
2018-10-09T07:07:42.632Z,9.30
2018-10-09T07:10:10.487Z,9.30
2018-10-09T07:12:38.458Z,9.50
2018-10-09T07:15:06.712Z,9.50
2018-10-09T07:17:34.619Z,9.50
2018-10-09T07:20:02.734Z,9.50
2018-10-09T07:22:30.637Z,9.50
2018-10-09T07:24:59.108Z,9.60
2018-10-09T07:27:27.021Z,9.60
2018-10-09T07:29:55.157Z,9.60
2018-10-09T07:32:23.007Z,9.70
2018-10-09T07:34:50.858Z,9.80
2018-10-09T07:37:18.713Z,9.90
2018-10-09T07:39:46.560Z,10.00
2018-10-09T07:42:14.404Z,10.10
2018-10-09T07:44:43.204Z,10.30
2018-10-09T07:47:11.188Z,10.30
2018-10-09T07:49:39.124Z,10.50
2018-10-09T07:52:07.131Z,10.60
2018-10-09T07:54:35.282Z,10.70
2018-10-09T07:57:03.239Z,10.90
2018-10-09T07:59:31.085Z,10.80
2018-10-09T08:01:59.749Z,10.90
2018-10-09T08:04:27.650Z,10.90
2018-10-09T08:06:55.602Z,11.10
2018-10-09T08:09:23.484Z,11.20
2018-10-09T08:11:51.370Z,11.30
2018-10-09T08:14:19.234Z,11.20
2018-10-09T08:16:47.076Z,11.20
2018-10-09T08:19:15.273Z,11.30
2018-10-09T08:21:43.194Z,11.40
2018-10-09T08:24:11.067Z,11.50
2018-10-09T08:26:38.942Z,11.50
2018-10-09T08:29:06.844Z,11.60
2018-10-09T08:31:34.709Z,11.50
2018-10-09T08:34:02.606Z,11.70
2018-10-09T08:36:30.464Z,11.70
2018-10-09T08:38:58.616Z,11.70
2018-10-09T08:41:26.554Z,12.00
2018-10-09T08:43:54.441Z,12.10
2018-10-09T08:46:22.673Z,12.20
2018-10-09T08:48:50.709Z,12.30
2018-10-09T08:51:18.588Z,12.50
2018-10-09T08:53:46.462Z,12.60
2018-10-09T08:56:14.329Z,12.90
2018-10-09T08:58:42.190Z,13.00
2018-10-09T09:01:10.340Z,13.10
2018-10-09T09:03:38.313Z,13.30
2018-10-09T09:06:06.520Z,13.50
2018-10-09T09:08:34.501Z,13.60
2018-10-09T09:11:02.345Z,13.90
2018-10-09T09:13:30.223Z,14.10
2018-10-09T09:15:58.115Z,14.30
2018-10-09T09:18:26.007Z,14.50
2018-10-09T09:20:53.931Z,14.70
2018-10-09T09:23:21.728Z,15.10
2018-10-09T09:25:49.610Z,15.40
2018-10-09T09:28:17.703Z,15.60
2018-10-09T09:30:45.542Z,15.90
2018-10-09T09:33:13.820Z,16.00
2018-10-09T09:35:41.600Z,16.10
2018-10-09T09:38:09.437Z,16.30
2018-10-09T09:40:37.374Z,16.50
2018-10-09T09:43:05.547Z,16.60
2018-10-09T09:45:33.413Z,16.70
2018-10-09T09:48:01.232Z,16.80
2018-10-09T09:50:29.063Z,16.90
2018-10-09T09:52:56.925Z,17.20
2018-10-09T09:55:25.951Z,17.40
2018-10-09T09:57:54.256Z,17.40
2018-10-09T10:00:27.580Z,17.50
2018-10-09T10:02:55.669Z,17.60
2018-10-09T10:05:23.480Z,17.90
2018-10-09T10:07:51.460Z,18.00
2018-10-09T10:10:19.458Z,18.30
2018-10-09T10:12:48.230Z,18.40
2018-10-09T10:15:16.345Z,18.50
2018-10-09T10:17:44.221Z,18.50
2018-10-09T10:20:12.411Z,18.70
2018-10-09T10:22:40.492Z,18.90
2018-10-09T10:25:08.453Z,19.20
2018-10-09T10:27:36.378Z,19.20
2018-10-09T10:30:04.651Z,19.10
2018-10-09T10:32:32.501Z,19.30
2018-10-09T10:35:00.366Z,19.20
2018-10-09T10:37:28.224Z,19.40
2018-10-09T10:39:56.129Z,19.60
2018-10-09T10:42:24.004Z,19.70
2018-10-09T10:44:51.836Z,19.70
2018-10-09T10:47:19.722Z,19.90
2018-10-09T10:49:47.569Z,20.00
2018-10-09T10:52:15.814Z,20.20
2018-10-09T10:54:43.685Z,20.10
2018-10-09T10:57:11.575Z,20.20
2018-10-09T10:59:39.414Z,20.30
2018-10-09T11:02:07.617Z,20.40
2018-10-09T11:04:35.483Z,20.40
2018-10-09T11:07:03.641Z,20.40
2018-10-09T11:09:31.516Z,20.60
2018-10-09T11:11:59.389Z,20.70
2018-10-09T11:14:27.254Z,20.70
2018-10-09T11:16:55.157Z,20.70
2018-10-09T11:19:22.986Z,20.80
2018-10-09T11:21:51.137Z,20.90
2018-10-09T11:24:18.979Z,21.00
2018-10-09T11:26:46.837Z,21.20
2018-10-09T11:29:14.952Z,21.30
2018-10-09T11:31:42.860Z,21.30
2018-10-09T11:34:10.716Z,21.20
2018-10-09T11:36:38.988Z,21.40
2018-10-09T11:39:07.528Z,21.40
2018-10-09T11:41:35.430Z,21.40
2018-10-09T11:44:03.330Z,21.30
2018-10-09T11:46:31.300Z,21.40
2018-10-09T11:48:59.165Z,21.40
2018-10-09T11:51:27.056Z,21.50
2018-10-09T11:53:54.893Z,21.40
2018-10-09T11:56:23.035Z,21.40
2018-10-09T11:58:50.928Z,21.40
2018-10-09T12:01:18.894Z,21.30
2018-10-09T12:03:46.746Z,21.40
2018-10-09T12:06:14.617Z,21.50
2018-10-09T12:08:42.726Z,21.30
2018-10-09T12:11:10.588Z,21.40
2018-10-09T12:13:38.410Z,21.40
2018-10-09T12:16:06.708Z,21.40
2018-10-09T12:18:34.568Z,21.30
2018-10-09T12:21:02.419Z,21.30
2018-10-09T12:23:30.519Z,21.40
2018-10-09T12:25:58.859Z,21.50
2018-10-09T12:28:26.725Z,21.70
2018-10-09T12:30:54.623Z,21.80
2018-10-09T12:33:22.876Z,21.80
2018-10-09T12:35:50.716Z,21.70
2018-10-09T12:38:18.664Z,21.60
2018-10-09T12:40:46.660Z,21.70
2018-10-09T12:43:14.521Z,21.60
2018-10-09T12:45:42.718Z,21.50
2018-10-09T12:48:10.570Z,21.50
2018-10-09T12:50:38.452Z,21.30
2018-10-09T12:53:06.410Z,21.60
2018-10-09T12:55:34.251Z,21.80
2018-10-09T12:58:02.070Z,21.90
2018-10-09T13:00:29.952Z,22.10
2018-10-09T13:02:57.852Z,22.20
2018-10-09T13:05:26.802Z,22.20
2018-10-09T13:07:54.661Z,22.10
2018-10-09T13:10:22.873Z,21.90
2018-10-09T13:12:50.993Z,21.60
2018-10-09T13:15:18.858Z,21.60
2018-10-09T13:17:47.566Z,21.80
2018-10-09T13:20:15.617Z,21.90
2018-10-09T13:22:43.791Z,22.00
2018-10-09T13:25:11.571Z,22.00
2018-10-09T13:27:39.498Z,22.10
2018-10-09T13:30:07.778Z,22.00
2018-10-09T13:32:35.641Z,22.00
2018-10-09T13:35:03.589Z,21.70
2018-10-09T13:37:31.533Z,21.70
2018-10-09T13:39:59.426Z,21.80
2018-10-09T13:42:27.288Z,21.80
2018-10-09T13:44:55.154Z,21.80
2018-10-09T13:47:23.129Z,21.80
2018-10-09T13:49:50.962Z,21.80
2018-10-09T13:52:18.877Z,21.90
2018-10-09T13:54:46.766Z,21.90
2018-10-09T13:57:15.114Z,21.80
2018-10-09T13:59:42.949Z,21.90
2018-10-09T14:02:10.941Z,21.80
2018-10-09T14:04:38.855Z,21.60
2018-10-09T14:07:07.423Z,21.40
2018-10-09T14:09:36.047Z,21.50
2018-10-09T14:12:04.757Z,21.50
2018-10-09T14:14:33.843Z,21.40
2018-10-09T14:17:03.244Z,21.50
2018-10-09T14:19:31.516Z,21.70
2018-10-09T14:21:59.757Z,21.70
2018-10-09T14:24:27.676Z,21.60
2018-10-09T14:26:55.606Z,21.70
2018-10-09T14:29:23.771Z,21.70
2018-10-09T14:31:51.610Z,21.60
2018-10-09T14:34:19.700Z,21.60
2018-10-09T14:36:47.530Z,21.60
2018-10-09T14:39:15.350Z,21.60
2018-10-09T14:41:43.172Z,21.70
2018-10-09T14:44:11.142Z,21.70
2018-10-09T14:46:38.935Z,21.80
2018-10-09T14:49:06.828Z,21.70
2018-10-09T14:51:34.668Z,21.60
2018-10-09T14:54:02.601Z,21.60
2018-10-09T14:56:30.705Z,21.60
2018-10-09T14:58:58.820Z,21.50
2018-10-09T15:01:26.660Z,21.50
2018-10-09T15:03:55.229Z,21.50
2018-10-09T15:06:23.096Z,21.50
2018-10-09T15:08:50.973Z,21.50
2018-10-09T15:11:18.826Z,21.50
2018-10-09T15:13:46.680Z,21.40
2018-10-09T15:16:14.560Z,21.40
2018-10-09T15:18:42.489Z,21.30
2018-10-09T15:21:10.731Z,21.10
2018-10-09T15:23:38.600Z,20.70
2018-10-09T15:26:07.310Z,20.90
2018-10-09T15:28:35.175Z,20.80
2018-10-09T15:31:03.074Z,20.80
2018-10-09T15:33:30.923Z,20.80
2018-10-09T15:35:58.803Z,20.70
2018-10-09T15:38:27.748Z,20.80
2018-10-09T15:40:55.739Z,20.70
2018-10-09T15:43:23.601Z,20.60
2018-10-09T15:46:54.783Z,20.60
2018-10-09T15:49:23.112Z,20.40
2018-10-09T15:51:50.928Z,20.20
2018-10-09T15:54:18.790Z,20.10
2018-10-09T15:56:46.896Z,20.10
2018-10-09T15:59:15.569Z,20.00
2018-10-09T16:01:43.416Z,20.10
2018-10-09T16:04:11.602Z,20.10
2018-10-09T16:06:39.596Z,19.90
2018-10-09T16:09:08.709Z,19.80
2018-10-09T16:11:36.602Z,19.60
2018-10-09T16:14:04.516Z,19.50
2018-10-09T16:16:32.335Z,19.30
2018-10-09T16:19:00.176Z,19.20
2018-10-09T16:21:27.987Z,19.10
2018-10-09T16:23:55.873Z,19.00
2018-10-09T16:26:23.728Z,18.90
2018-10-09T16:28:52.220Z,18.70
2018-10-09T16:31:20.094Z,18.60
2018-10-09T16:33:47.942Z,18.50
2018-10-09T16:36:15.809Z,18.40
2018-10-09T16:38:43.640Z,18.40
2018-10-09T16:41:11.905Z,18.30
2018-10-09T16:43:39.764Z,18.30
2018-10-09T16:46:07.947Z,18.20
2018-10-09T16:48:36.007Z,18.20
2018-10-09T16:51:03.897Z,18.10
2018-10-09T16:53:31.840Z,18.00
2018-10-09T16:56:00.080Z,17.90
2018-10-09T16:58:27.969Z,17.80
2018-10-09T17:00:55.822Z,17.70
2018-10-09T17:03:23.694Z,17.60
2018-10-09T17:05:51.604Z,17.50
2018-10-09T17:08:19.746Z,17.40
2018-10-09T17:10:47.955Z,17.40
2018-10-09T17:13:15.801Z,17.40
2018-10-09T17:15:43.761Z,17.30
2018-10-09T17:18:11.643Z,17.20
2018-10-09T17:20:39.737Z,17.20
2018-10-09T17:23:07.621Z,17.20
2018-10-09T17:25:35.507Z,17.10
2018-10-09T17:28:03.629Z,17.00
2018-10-09T17:30:31.757Z,16.90
2018-10-09T17:32:59.683Z,16.90
2018-10-09T17:35:27.611Z,17.00
2018-10-09T17:37:55.537Z,17.00
2018-10-09T17:40:23.648Z,16.80
2018-10-09T17:42:51.507Z,16.90
2018-10-09T17:45:19.369Z,16.90
2018-10-09T17:47:48.311Z,16.80
2018-10-09T17:50:18.237Z,16.70
2018-10-09T17:52:46.168Z,16.60
2018-10-09T17:55:14.064Z,16.70
2018-10-09T17:57:42.968Z,16.60
2018-10-09T18:00:10.816Z,16.50
2018-10-09T18:02:38.984Z,16.40
2018-10-09T18:05:06.908Z,16.40
2018-10-09T18:07:34.921Z,16.30
2018-10-09T18:10:02.875Z,16.20
2018-10-09T18:12:31.072Z,16.10
2018-10-09T18:14:59.001Z,16.00
2018-10-09T18:17:27.652Z,15.90
2018-10-09T18:19:55.686Z,15.90
2018-10-09T18:22:23.731Z,15.80
2018-10-09T18:24:52.440Z,15.70
2018-10-09T18:27:20.318Z,15.60
2018-10-09T18:29:48.216Z,15.60
2018-10-09T18:32:16.472Z,15.60
2018-10-09T18:34:44.565Z,15.50
2018-10-09T18:37:12.443Z,15.50
2018-10-09T18:39:40.336Z,15.40
2018-10-09T18:42:08.190Z,15.40
2018-10-09T18:44:36.611Z,15.30
2018-10-09T18:47:09.051Z,15.40
2018-10-09T18:49:36.926Z,15.40
2018-10-09T18:52:04.866Z,15.40
2018-10-09T18:54:32.785Z,15.30
2018-10-09T18:57:00.691Z,15.30
2018-10-09T18:59:28.557Z,15.20
2018-10-09T19:01:56.467Z,15.20
2018-10-09T19:04:24.982Z,15.20
2018-10-09T19:06:53.153Z,15.20
2018-10-09T19:09:22.258Z,15.10
2018-10-09T19:11:50.470Z,15.00
2018-10-09T19:14:18.708Z,14.90
2018-10-09T19:16:46.631Z,14.80
2018-10-09T19:19:14.646Z,14.80
2018-10-09T19:21:44.002Z,14.60
2018-10-09T19:24:11.967Z,14.50
2018-10-09T19:26:39.843Z,14.50
2018-10-09T19:29:07.769Z,14.40
2018-10-09T19:31:36.121Z,14.50
2018-10-09T19:34:04.815Z,14.50
2018-10-09T19:36:32.975Z,14.50
2018-10-09T19:39:01.238Z,14.40
2018-10-09T19:41:29.158Z,14.50
2018-10-09T19:43:57.050Z,14.40
2018-10-09T19:46:25.524Z,14.30
2018-10-09T19:48:53.411Z,14.20
2018-10-09T19:51:21.390Z,14.10
2018-10-09T19:53:49.819Z,14.20
2018-10-09T19:56:17.721Z,14.10
2018-10-09T19:58:45.609Z,14.10
2018-10-09T20:01:13.625Z,14.10
2018-10-09T20:03:44.747Z,14.00
2018-10-09T20:06:12.800Z,13.90
2018-10-09T20:08:40.993Z,13.80
2018-10-09T20:11:08.905Z,13.70
2018-10-09T20:13:37.190Z,13.60
2018-10-09T20:16:05.711Z,13.60
2018-10-09T20:18:33.894Z,13.70
2018-10-09T20:21:01.759Z,14.00
2018-10-09T20:23:30.184Z,14.60
2018-10-09T20:25:58.184Z,15.00
2018-10-09T20:28:26.093Z,15.30
2018-10-09T20:30:54.605Z,15.50
2018-10-09T20:33:22.516Z,15.50
2018-10-09T20:35:51.133Z,15.40
2018-10-09T20:38:19.286Z,15.50
2018-10-09T20:40:47.660Z,15.50
2018-10-09T20:43:15.474Z,15.40
2018-10-09T20:45:43.368Z,15.30
2018-10-09T20:48:11.211Z,15.40
2018-10-09T20:50:39.138Z,15.40
2018-10-09T20:53:07.296Z,15.30
2018-10-09T20:55:35.120Z,15.30
2018-10-09T20:58:02.957Z,15.40
2018-10-09T21:00:30.803Z,15.30
2018-10-09T21:02:58.663Z,15.30
2018-10-09T21:05:26.530Z,15.10
2018-10-09T21:07:54.929Z,14.70
2018-10-09T21:10:22.844Z,14.60
2018-10-09T21:12:50.770Z,14.30
2018-10-09T21:15:18.648Z,14.30
2018-10-09T21:17:46.692Z,14.40
2018-10-09T21:20:14.399Z,14.50
2018-10-09T21:22:42.323Z,14.50
2018-10-09T21:25:10.137Z,14.70
2018-10-09T21:27:38.386Z,14.50
2018-10-09T21:30:06.342Z,14.20
2018-10-09T21:32:34.193Z,14.10
2018-10-09T21:35:02.034Z,13.90
2018-10-09T21:37:30.129Z,13.70
2018-10-09T21:39:58.761Z,13.60
2018-10-09T21:42:26.680Z,13.60
2018-10-09T21:44:54.509Z,13.60
2018-10-09T21:47:22.356Z,13.50
2018-10-09T21:49:50.956Z,13.30
2018-10-09T21:52:18.867Z,13.20
2018-10-09T21:54:46.749Z,13.10
2018-10-09T21:57:15.011Z,13.10
2018-10-09T21:59:42.868Z,13.10
2018-10-09T22:02:11.713Z,13.00
2018-10-09T22:04:39.508Z,12.70
2018-10-09T22:07:07.452Z,12.60
2018-10-09T22:09:35.288Z,12.40
2018-10-09T22:12:03.260Z,12.30
2018-10-09T22:14:31.116Z,12.20
2018-10-09T22:16:59.889Z,12.10
2018-10-09T22:19:27.816Z,12.00
2018-10-09T22:21:55.680Z,12.00
2018-10-09T22:24:23.592Z,11.90
2018-10-09T22:26:51.423Z,11.90
2018-10-09T22:29:19.249Z,11.90
2018-10-09T22:31:47.103Z,11.90
2018-10-09T22:34:14.955Z,11.90
2018-10-09T22:36:42.844Z,12.00
2018-10-09T22:39:10.894Z,12.00
2018-10-09T22:41:39.185Z,12.20
2018-10-09T22:44:07.725Z,12.20
2018-10-09T22:46:35.596Z,12.30
2018-10-09T22:49:03.771Z,12.50
2018-10-09T22:51:31.661Z,12.60
2018-10-09T22:53:59.509Z,12.70
2018-10-09T22:56:27.343Z,12.70
2018-10-09T22:58:55.180Z,12.90
2018-10-09T23:01:23.017Z,13.00
2018-10-09T23:03:50.868Z,13.00
2018-10-09T23:06:19.064Z,13.20
2018-10-09T23:08:46.901Z,13.20
2018-10-09T23:11:15.009Z,13.20
2018-10-09T23:13:42.852Z,13.20
2018-10-09T23:16:10.712Z,13.20
2018-10-09T23:18:38.564Z,13.10
2018-10-09T23:21:06.898Z,13.10
2018-10-09T23:23:34.867Z,13.10
2018-10-09T23:26:03.016Z,13.20
2018-10-09T23:28:31.198Z,13.10
2018-10-09T23:30:59.025Z,13.00
2018-10-09T23:33:26.828Z,13.00
2018-10-09T23:35:54.676Z,12.90
2018-10-09T23:38:23.488Z,13.00
2018-10-09T23:40:51.557Z,12.90
2018-10-09T23:43:19.412Z,12.90
2018-10-09T23:45:47.957Z,13.00
2018-10-09T23:48:15.861Z,13.00
2018-10-09T23:50:43.838Z,13.00
2018-10-09T23:53:11.787Z,13.00
2018-10-09T23:55:39.732Z,13.00
2018-10-09T23:58:07.633Z,13.00
